Time;durP1;ratioP1;P1;durP2;ratioP2;P2;SDS_P1;SDS_P2;PMS_P1;PMS_P2;Temp;Humidity;BMP_temperature;BMP_pressure;BME280_temperature;BME280_humidity;BME280_pressure;Samples;Min_cycle;Max_cycle;Signal;HPM_P1;HPM_P2
2021/09/07 00:00:43;;;;;;;6.95;3.17;;;;;;;21.30;43.34;100472.84;5057304;28;20025;-75
2021/09/07 00:03:08;;;;;;;5.72;3.40;;;;;;;21.27;43.48;100473.28;5057177;28;20032;-75
2021/09/07 00:05:34;;;;;;;6.63;3.67;;;;;;;21.18;43.65;100464.69;5057332;28;20568;-75
2021/09/07 00:07:59;;;;;;;5.10;3.28;;;;;;;21.12;43.82;100467.44;5057384;28;20025;-75
2021/09/07 00:10:25;;;;;;;6.80;2.92;;;;;;;20.94;43.93;100461.03;5057501;28;20017;-74
2021/09/07 00:12:50;;;;;;;6.53;2.90;;;;;;;21.09;43.82;100470.59;5057475;28;20106;-74
2021/09/07 00:15:17;;;;;;;5.00;3.30;;;;;;;20.82;44.02;100425.25;5057136;28;20052;-74
2021/09/07 00:17:43;;;;;;;6.85;2.95;;;;;;;21.13;43.80;100469.91;5057352;28;20477;-74
2021/09/07 00:20:09;;;;;;;4.35;2.95;;;;;;;21.16;43.78;100465.97;5057322;28;20133;-74
2021/09/07 00:22:36;;;;;;;5.28;3.22;;;;;;;20.92;43.90;100438.97;5057256;28;20497;-74
2021/09/07 00:25:02;;;;;;;5.20;2.90;;;;;;;20.71;44.00;100430.50;5057235;28;20028;-75
2021/09/07 00:27:27;;;;;;;5.95;2.75;;;;;;;20.74;44.04;100433.56;5057183;28;20105;-75
2021/09/07 00:29:53;;;;;;;4.40;3.08;;;;;;;20.99;44.09;100481.84;5057094;28;20021;-74
2021/09/07 00:32:18;;;;;;;5.15;2.58;;;;;;;20.90;44.29;100475.94;5056154;28;20082;-74
2021/09/07 00:34:44;;;;;;;4.65;2.88;;;;;;;20.96;44.32;100470.72;5053692;28;20024;-75
2021/09/07 00:37:09;;;;;;;6.38;3.17;;;;;;;20.49;44.26;100404.09;5053852;28;20029;-75
2021/09/07 00:39:35;;;;;;;4.97;2.95;;;;;;;20.47;44.18;100418.78;5053756;28;20140;-74
2021/09/07 00:42:01;;;;;;;4.53;2.58;;;;;;;20.92;44.28;100479.22;5053867;28;20025;-75
2021/09/07 00:44:26;;;;;;;4.97;2.92;;;;;;;20.65;44.35;100434.91;5053951;28;20103;-75
2021/09/07 00:46:57;;;;;;;5.22;3.10;;;;;;;20.79;44.35;100465.09;5053763;28;20029;-75
2021/09/07 00:49:25;;;;;;;4.78;3.00;;;;;;;20.89;44.29;100474.31;5053718;28;20070;-74
2021/09/07 00:51:52;;;;;;;8.20;3.53;;;;;;;20.84;44.27;100470.66;5053770;28;20037;-75
2021/09/07 00:54:24;;;;;;;4.32;2.60;;;;;;;20.82;44.45;100484.28;5053892;28;20025;-75
2021/09/07 00:56:52;;;;;;;5.40;2.80;;;;;;;20.45;44.46;100424.38;5053818;28;20048;-74
2021/09/07 00:59:19;;;;;;;5.03;2.80;;;;;;;20.82;44.61;100480.78;5053586;28;20501;-74
2021/09/07 01:01:45;;;;;;;7.20;3.03;;;;;;;20.78;44.41;100482.25;5053678;28;20036;-75
2021/09/07 01:04:10;;;;;;;4.28;2.35;;;;;;;20.74;44.53;100481.06;5053437;28;20025;-75
2021/09/07 01:06:36;;;;;;;5.35;2.88;;;;;;;20.64;44.79;100481.56;5052314;28;20017;-74
2021/09/07 01:09:02;;;;;;;5.50;2.58;;;;;;;20.35;44.95;100436.59;5053497;28;20505;-75
2021/09/07 01:11:27;;;;;;;4.13;2.65;;;;;;;20.20;44.88;100416.31;5053464;28;20044;-74
2021/09/07 01:13:53;;;;;;;4.28;3.05;;;;;;;20.52;44.92;100464.53;5052892;28;20126;-74
2021/09/07 01:16:18;;;;;;;7.13;3.15;;;;;;;20.60;45.20;100486.53;5053090;28;20519;-75
2021/09/07 01:18:44;;;;;;;6.75;3.38;;;;;;;20.48;45.09;100461.47;5053131;28;20041;-74
2021/09/07 01:21:14;;;;;;;6.80;3.03;;;;;;;20.41;44.99;100460.72;5052042;28;20502;-76
2021/09/07 01:23:42;;;;;;;6.32;2.78;;;;;;;20.25;44.99;100437.09;5053338;28;20048;-75
2021/09/07 01:26:09;;;;;;;6.55;3.13;;;;;;;20.21;44.99;100439.41;5053085;28;20025;-74
2021/09/07 01:28:35;;;;;;;7.40;2.90;;;;;;;20.00;45.22;100415.63;5053031;28;20107;-74
2021/09/07 01:31:02;;;;;;;4.72;2.80;;;;;;;20.44;45.26;100484.41;5051796;28;20099;-75
2021/09/07 01:33:28;;;;;;;5.15;2.95;;;;;;;20.10;45.33;100433.94;5053007;28;20045;-75
2021/09/07 01:35:58;;;;;;;6.22;2.90;;;;;;;20.35;45.46;100472.28;5052918;28;20527;-74
2021/09/07 01:38:24;;;;;;;6.47;2.65;;;;;;;20.35;45.34;100472.28;5052709;28;20017;-75
2021/09/07 01:40:50;;;;;;;6.88;2.92;;;;;;;20.30;45.35;100489.03;5052728;28;20029;-74
2021/09/07 01:43:16;;;;;;;6.35;3.22;;;;;;;20.28;45.41;100471.53;5052750;28;20056;-74
2021/09/07 01:45:49;;;;;;;5.90;2.85;;;;;;;20.29;45.85;100465.94;5051727;28;20060;-74
2021/09/07 01:48:16;;;;;;;7.13;3.08;;;;;;;20.25;45.50;100475.47;5052695;28;20025;-74
2021/09/07 01:50:42;;;;;;;5.03;2.63;;;;;;;20.27;45.50;100461.84;5052520;28;20031;-75
2021/09/07 01:53:08;;;;;;;6.75;3.13;;;;;;;20.34;45.50;100461.78;5052599;28;20025;-74
2021/09/07 01:55:34;;;;;;;5.70;2.80;;;;;;;19.81;45.43;100384.44;5052554;28;20442;-74
2021/09/07 01:57:59;;;;;;;3.47;2.75;;;;;;;20.31;45.37;100458.50;5052756;28;20021;-74
2021/09/07 02:00:25;;;;;;;8.02;2.78;;;;;;;19.96;45.55;100417.91;5052371;28;20504;-74
2021/09/07 02:02:50;;;;;;;7.78;3.10;;;;;;;20.25;45.56;100458.56;5052420;28;20116;-74
2021/09/07 02:05:17;;;;;;;6.78;2.70;;;;;;;20.25;45.62;100470.09;5052468;28;20032;-75
2021/09/07 02:07:42;;;;;;;4.60;2.58;;;;;;;20.13;45.51;100449.59;5052197;28;20110;-74
2021/09/07 02:10:08;;;;;;;6.45;3.60;;;;;;;19.90;45.61;100417.97;5052146;28;20482;-74
2021/09/07 02:12:33;;;;;;;4.93;2.63;;;;;;;19.82;46.13;100437.00;5052121;28;20497;-74
2021/09/07 02:14:59;;;;;;;5.57;2.33;;;;;;;19.90;46.00;100450.13;5051972;28;20124;-75
2021/09/07 02:17:24;;;;;;;7.30;2.85;;;;;;;20.06;45.89;100483.63;5052284;28;20025;-74
2021/09/07 02:19:51;;;;;;;5.70;2.85;;;;;;;20.08;45.99;100471.69;5052020;28;20060;-74
2021/09/07 02:22:17;;;;;;;6.95;2.90;;;;;;;20.10;45.67;100474.97;5050828;28;20017;-81
2021/09/07 02:24:43;;;;;;;8.32;3.17;;;;;;;20.00;45.87;100461.19;5051989;28;20075;-81
2021/09/07 02:27:08;;;;;;;7.22;3.72;;;;;;;19.69;46.20;100427.19;5051826;28;20112;-79
2021/09/07 02:29:34;;;;;;;6.45;3.38;;;;;;;19.66;46.04;100435.66;5052049;28;20027;-80
2021/09/07 02:31:59;;;;;;;6.50;3.60;;;;;;;19.55;46.32;100420.25;5051893;28;20017;-80
2021/09/07 02:34:25;;;;;;;5.78;3.00;;;;;;;19.53;46.09;100419.66;5051651;28;20449;-81
2021/09/07 02:36:50;;;;;;;6.80;3.22;;;;;;;19.24;46.39;100376.28;5051690;28;20035;-80
2021/09/07 02:39:16;;;;;;;5.90;3.10;;;;;;;19.78;46.44;100471.44;5051610;28;20090;-80
2021/09/07 02:41:41;;;;;;;5.85;2.85;;;;;;;19.80;46.34;100464.00;5050491;28;20032;-80
2021/09/07 02:44:06;;;;;;;6.00;2.67;;;;;;;19.85;46.35;100469.53;5051724;28;20021;-80
2021/09/07 02:46:32;;;;;;;3.47;2.65;;;;;;;19.81;46.31;100465.66;5051846;28;20021;-80
2021/09/07 02:48:57;;;;;;;6.35;3.00;;;;;;;19.55;46.64;100441.69;5051804;28;20024;-80
2021/09/07 02:51:23;;;;;;;3.33;2.30;;;;;;;19.36;46.64;100419.31;5051610;28;20028;-82
2021/09/07 02:53:48;;;;;;;5.50;2.80;;;;;;;19.61;46.78;100481.03;5051235;28;20100;-81
2021/09/07 02:56:14;;;;;;;4.55;3.25;;;;;;;19.64;46.63;100469.88;5051317;28;20033;-81
2021/09/07 02:58:40;;;;;;;7.35;3.47;;;;;;;19.18;46.75;100397.75;5051506;28;20032;-80
2021/09/07 03:01:05;;;;;;;7.22;3.13;;;;;;;19.36;46.89;100440.72;5051367;28;20386;-81
2021/09/07 03:03:31;;;;;;;6.38;2.90;;;;;;;19.12;47.01;100420.00;5051076;28;20078;-81
2021/09/07 03:05:58;;;;;;;5.85;2.92;;;;;;;19.19;47.08;100439.53;5051275;28;20104;-80
2021/09/07 03:08:23;;;;;;;7.88;3.10;;;;;;;19.15;47.24;100443.69;5051333;28;20025;-80
2021/09/07 03:10:49;;;;;;;5.13;3.08;;;;;;;18.73;47.14;100374.47;5050004;28;20017;-80
2021/09/07 03:13:14;;;;;;;4.10;3.05;;;;;;;19.03;47.22;100412.22;5050959;28;20025;-82
2021/09/07 03:15:41;;;;;;;4.45;2.83;;;;;;;19.35;47.20;100471.22;5051284;28;20032;-80
2021/09/07 03:18:08;;;;;;;8.70;3.08;;;;;;;19.36;47.22;100470.19;5051328;28;20520;-81
2021/09/07 03:20:33;;;;;;;6.53;2.92;;;;;;;19.36;47.27;100476.38;5051148;28;20017;-80
2021/09/07 03:22:58;;;;;;;4.00;2.78;;;;;;;19.29;47.27;100470.19;5051160;28;20067;-80
2021/09/07 03:25:24;;;;;;;4.72;2.83;;;;;;;18.93;47.15;100403.00;5051409;28;20036;-75
2021/09/07 03:27:49;;;;;;;5.45;2.92;;;;;;;19.40;47.18;100474.09;5051253;28;20020;-74
2021/09/07 03:30:15;;;;;;;5.97;3.10;;;;;;;19.41;47.34;100481.09;5051388;28;20013;-74
2021/09/07 03:32:40;;;;;;;6.57;3.15;;;;;;;19.20;47.19;100433.16;5050917;28;20029;-74
2021/09/07 03:35:06;;;;;;;6.57;3.60;;;;;;;19.49;46.99;100480.84;5049714;28;20025;-75
2021/09/07 03:37:32;;;;;;;5.03;3.25;;;;;;;19.14;47.01;100429.47;5050961;28;20413;-75
2021/09/07 03:39:57;;;;;;;4.05;2.65;;;;;;;19.48;46.85;100483.72;5050926;28;20025;-74
2021/09/07 03:42:23;;;;;;;13.02;4.13;;;;;;;19.28;47.07;100457.00;5049758;28;20064;-74
2021/09/07 03:44:48;;;;;;;9.75;3.28;;;;;;;19.14;47.27;100448.22;5051054;28;20193;-74
2021/09/07 03:47:14;;;;;;;5.25;3.13;;;;;;;19.02;46.90;100425.81;5050937;28;20017;-75
2021/09/07 03:49:40;;;;;;;6.43;2.58;;;;;;;19.09;47.11;100444.53;5050715;28;20099;-74
2021/09/07 03:52:06;;;;;;;6.93;2.75;;;;;;;19.25;47.27;100466.28;5050616;28;20103;-75
2021/09/07 03:54:32;;;;;;;7.78;3.40;;;;;;;19.16;46.88;100453.34;5050736;28;20029;-74
2021/09/07 03:56:57;;;;;;;5.00;2.90;;;;;;;18.96;46.99;100429.34;5050917;28;20421;-74
2021/09/07 03:59:22;;;;;;;4.88;2.90;;;;;;;19.10;46.95;100456.88;5050679;28;20021;-74
2021/09/07 04:01:48;;;;;;;6.03;2.50;;;;;;;19.14;46.95;100455.41;5050927;28;20111;-74
2021/09/07 04:04:13;;;;;;;5.55;2.63;;;;;;;19.39;46.80;100501.09;5050772;28;20025;-74
2021/09/07 04:06:39;;;;;;;4.63;3.00;;;;;;;19.33;46.90;100489.34;5050731;28;20138;-73
2021/09/07 04:09:04;;;;;;;5.72;2.53;;;;;;;19.19;46.89;100463.63;5053094;28;20017;-74
2021/09/07 04:11:29;;;;;;;5.35;3.10;;;;;;;19.22;46.80;100461.34;5054566;28;20017;-74
2021/09/07 04:13:55;;;;;;;7.93;3.00;;;;;;;19.16;46.95;100467.56;5054393;28;20070;-74
2021/09/07 04:16:20;;;;;;;9.30;3.17;;;;;;;19.32;46.96;100493.03;5054513;28;20075;-73
2021/09/07 04:18:46;;;;;;;6.88;3.17;;;;;;;19.28;46.93;100492.63;5054326;28;20017;-74
2021/09/07 04:21:12;;;;;;;8.75;3.58;;;;;;;18.84;47.12;100439.88;5054263;28;20486;-74
2021/09/07 04:23:38;;;;;;;7.50;3.20;;;;;;;18.79;47.08;100439.69;5054300;28;20025;-74
2021/09/07 04:26:05;;;;;;;6.95;3.40;;;;;;;19.16;47.19;100488.97;5052980;28;20508;-75
2021/09/07 04:28:30;;;;;;;8.93;3.60;;;;;;;19.18;47.04;100489.59;5054241;28;20028;-74
2021/09/07 04:30:56;;;;;;;8.50;2.90;;;;;;;19.06;47.23;100485.91;5054273;28;20021;-74
2021/09/07 04:33:21;;;;;;;12.02;3.38;;;;;;;19.08;47.19;100489.22;5054169;28;20115;-74
2021/09/07 04:35:46;;;;;;;8.00;3.42;;;;;;;19.14;47.15;100485.69;5054063;28;20104;-74
2021/09/07 04:38:12;;;;;;;7.82;3.50;;;;;;;19.05;46.93;100462.88;5054035;28;20493;-74
2021/09/07 04:40:37;;;;;;;10.02;3.95;;;;;;;18.73;46.93;100411.91;5053922;28;20027;-74
2021/09/07 04:43:03;;;;;;;7.03;4.03;;;;;;;19.24;46.88;100488.75;5054069;28;20025;-74
2021/09/07 04:45:28;;;;;;;9.98;3.95;;;;;;;19.27;46.83;100498.22;5053910;28;20021;-74
2021/09/07 04:47:54;;;;;;;6.43;3.42;;;;;;;18.85;46.99;100467.44;5054061;28;20024;-74
2021/09/07 04:50:19;;;;;;;12.20;4.07;;;;;;;18.77;46.91;100447.09;5053968;28;20024;-74
2021/09/07 04:52:44;;;;;;;8.77;3.75;;;;;;;19.08;46.98;100509.81;5053428;28;20025;-74
2021/09/07 04:55:10;;;;;;;7.53;3.95;;;;;;;19.07;46.98;100508.97;5053384;28;20021;-74
2021/09/07 04:57:35;;;;;;;11.00;3.70;;;;;;;19.07;47.06;100510.84;5053796;28;20029;-74
2021/09/07 05:00:01;;;;;;;9.55;3.30;;;;;;;19.06;47.22;100510.00;5053453;28;20113;-74
2021/09/07 05:02:27;;;;;;;10.00;3.90;;;;;;;18.99;47.08;100495.81;5053639;28;20021;-74
2021/09/07 05:04:52;;;;;;;10.63;3.75;;;;;;;19.15;47.03;100508.75;5052271;28;20033;-75
2021/09/07 05:07:17;;;;;;;8.57;3.80;;;;;;;19.14;46.79;100512.47;5053369;28;20033;-74
2021/09/07 05:09:43;;;;;;;10.43;3.90;;;;;;;19.19;46.89;100509.97;5053261;28;20106;-74
2021/09/07 05:12:08;;;;;;;7.55;3.50;;;;;;;18.96;46.73;100458.78;5053117;28;20549;-74
2021/09/07 05:14:34;;;;;;;6.55;3.00;;;;;;;19.35;46.46;100508.72;5052950;28;20060;-74
2021/09/07 05:16:59;;;;;;;6.00;3.33;;;;;;;19.17;46.09;100482.59;5053187;28;20025;-74
2021/09/07 05:19:24;;;;;;;7.38;2.55;;;;;;;19.43;45.59;100515.69;5052841;28;20021;-74
2021/09/07 05:21:50;;;;;;;8.85;3.13;;;;;;;19.10;45.23;100463.06;5053327;28;20029;-74
2021/09/07 05:24:15;;;;;;;5.90;3.17;;;;;;;19.46;44.91;100516.09;5053086;28;20151;-74
2021/09/07 05:26:41;;;;;;;6.28;2.20;;;;;;;19.51;44.72;100521.63;5051765;28;20028;-74
2021/09/07 05:29:06;;;;;;;4.82;2.70;;;;;;;19.44;44.61;100507.44;5053060;28;20096;-74
2021/09/07 05:31:32;;;;;;;6.25;2.80;;;;;;;19.35;44.37;100484.63;5052965;28;20409;-75
2021/09/07 05:33:58;;;;;;;5.10;2.50;;;;;;;19.53;43.87;100503.53;5043798;28;20029;-75
2021/09/07 05:36:23;;;;;;;5.93;2.97;;;;;;;19.33;43.71;100459.91;5033447;28;20028;-74
2021/09/07 05:38:48;;;;;;;7.30;3.00;;;;;;;19.67;43.47;100515.81;5032831;28;20669;-74
2021/09/07 05:41:14;;;;;;;4.88;2.78;;;;;;;19.61;43.00;100508.63;5032517;28;20116;-74
2021/09/07 05:43:39;;;;;;;6.43;3.05;;;;;;;19.49;43.41;100496.91;5032833;28;20025;-74
2021/09/07 05:46:05;;;;;;;5.55;2.50;;;;;;;19.80;43.17;100508.75;5032732;28;20029;-74
2021/09/07 05:48:30;;;;;;;6.95;3.95;;;;;;;19.78;42.79;100498.25;5039718;28;20025;-74
2021/09/07 05:50:55;;;;;;;8.80;3.17;;;;;;;19.99;42.63;100518.53;5050847;28;20211;-74
2021/09/07 05:53:21;;;;;;;9.00;4.95;;;;;;;19.97;42.63;100518.75;5050389;28;20040;-75
2021/09/07 05:55:46;;;;;;;5.50;2.75;;;;;;;19.62;42.17;100463.91;5044159;28;20032;-75
2021/09/07 05:58:11;;;;;;;8.75;3.40;;;;;;;19.73;41.97;100475.81;5050930;28;20039;-75
2021/09/07 06:00:37;;;;;;;8.63;4.40;;;;;;;19.70;41.94;100465.50;5052072;28;20024;-74
2021/09/07 06:03:08;;;;;;;7.13;4.25;;;;;;;19.96;41.62;100508.22;5051986;28;20028;-75
2021/09/07 06:05:34;;;;;;;6.38;3.53;;;;;;;19.57;41.58;100445.81;5033075;28;20575;-75
2021/09/07 06:07:59;;;;;;;7.50;3.90;;;;;;;19.69;41.41;100462.00;5071476;28;20040;-74
2021/09/07 06:10:25;;;;;;;10.43;3.50;;;;;;;19.94;41.08;100508.44;5066694;28;20414;-75
2021/09/07 06:12:50;;;;;;;8.68;5.07;;;;;;;20.10;40.92;100506.31;5052110;28;20025;-75
2021/09/07 06:15:16;;;;;;;11.20;5.60;;;;;;;20.21;40.95;100519.03;5032490;28;20051;-76
2021/09/07 06:17:41;;;;;;;8.32;4.68;;;;;;;19.54;40.31;100379.25;5031907;28;20021;-76
2021/09/07 06:20:07;;;;;;;6.93;3.75;;;;;;;20.44;39.91;100507.75;5031530;28;20036;-75
2021/09/07 06:22:32;;;;;;;11.95;2.83;;;;;;;20.06;39.37;100459.50;5033227;28;20053;-75
2021/09/07 06:24:58;;;;;;;6.22;3.65;;;;;;;20.03;39.25;100463.44;5032967;28;20025;-76
2021/09/07 06:27:24;;;;;;;6.32;3.97;;;;;;;20.38;39.27;100516.63;5042774;28;20025;-76
2021/09/07 06:29:50;;;;;;;7.43;3.40;;;;;;;20.48;38.82;100506.25;5033439;28;20104;-76
2021/09/07 06:32:17;;;;;;;5.47;3.17;;;;;;;19.99;38.70;100433.56;5030431;28;20109;-76
2021/09/07 06:34:43;;;;;;;11.50;3.10;;;;;;;20.44;38.73;100480.91;5029372;28;20453;-76
2021/09/07 06:37:08;;;;;;;7.88;4.13;;;;;;;20.61;38.84;100495.41;5043123;28;20059;-74
2021/09/07 06:39:34;;;;;;;6.88;3.40;;;;;;;20.72;38.68;100507.28;5033455;28;20033;-75
2021/09/07 06:41:59;;;;;;;7.65;4.25;;;;;;;20.67;38.48;100507.13;5040050;28;20052;-73
2021/09/07 06:44:24;;;;;;;7.03;3.20;;;;;;;20.70;38.71;100502.13;5051061;28;20095;-76
2021/09/07 06:46:50;;;;;;;6.15;2.78;;;;;;;20.60;38.44;100502.66;5037145;28;20029;-76
2021/09/07 06:49:16;;;;;;;7.82;3.05;;;;;;;20.62;38.55;100516.66;5031073;28;20049;-76
2021/09/07 06:51:41;;;;;;;9.07;4.43;;;;;;;20.69;38.53;100518.47;5031299;28;20112;-76
2021/09/07 06:54:06;;;;;;;7.30;3.38;;;;;;;20.78;38.59;100507.22;5037446;28;20083;-76
2021/09/07 06:56:32;;;;;;;12.82;3.83;;;;;;;20.59;38.42;100473.34;5060775;28;20554;-74
2021/09/07 06:58:57;;;;;;;7.07;3.08;;;;;;;20.54;38.27;100452.53;5043171;28;20545;-76
2021/09/07 07:01:23;;;;;;;10.68;4.55;;;;;;;20.94;38.10;100517.41;5030963;28;20029;-76
2021/09/07 07:03:48;;;;;;;7.93;3.28;;;;;;;21.01;37.98;100513.84;5032198;28;20163;-75
2021/09/07 07:06:13;;;;;;;8.70;4.45;;;;;;;21.13;37.88;100512.88;5039771;28;20137;-75
2021/09/07 07:08:39;;;;;;;6.32;3.05;;;;;;;20.99;37.56;100487.22;5040685;28;20017;-75
2021/09/07 07:11:04;;;;;;;3.92;2.60;;;;;;;20.80;37.46;100426.47;5043560;28;20025;-75
2021/09/07 07:13:30;;;;;;;4.93;2.63;;;;;;;21.15;37.19;100478.56;5043521;28;20052;-75
2021/09/07 07:15:55;;;;;;;6.88;3.35;;;;;;;21.43;37.28;100504.09;5040852;28;20494;-76
2021/09/07 07:18:21;;;;;;;5.40;2.15;;;;;;;21.44;36.99;100476.19;5030674;28;20081;-76
2021/09/07 07:20:46;;;;;;;4.38;2.70;;;;;;;21.55;36.91;100489.69;5030385;28;20025;-75
2021/09/07 07:23:11;;;;;;;13.25;3.10;;;;;;;21.80;37.07;100523.69;5030433;28;20021;-75
2021/09/07 07:25:37;;;;;;;4.30;2.47;;;;;;;21.56;36.98;100474.41;5029440;28;20017;-76
2021/09/07 07:28:02;;;;;;;5.32;2.53;;;;;;;21.87;36.97;100514.50;5029201;28;20116;-75
2021/09/07 07:30:28;;;;;;;7.90;2.58;;;;;;;22.01;36.82;100523.19;5029677;28;20083;-75
2021/09/07 07:32:54;;;;;;;4.43;1.83;;;;;;;22.07;36.78;100513.41;5038321;28;20151;-75
2021/09/07 07:35:23;;;;;;;3.42;1.88;;;;;;;22.15;36.59;100508.53;5050570;28;20108;-76
2021/09/07 07:37:48;;;;;;;12.02;2.15;;;;;;;22.26;36.64;100517.66;5043587;28;20413;-75
2021/09/07 07:40:14;;;;;;;5.78;3.15;;;;;;;22.26;36.64;100508.78;5040552;28;20025;-75
2021/09/07 07:42:39;;;;;;;5.00;2.45;;;;;;;22.36;36.92;100517.94;5032491;28;20497;-74
2021/09/07 07:45:06;;;;;;;6.40;1.90;;;;;;;22.14;36.63;100466.53;5034097;28;20025;-75
2021/09/07 07:47:31;;;;;;;7.78;2.33;;;;;;;22.58;36.51;100525.47;5034542;28;20410;-75
2021/09/07 07:49:56;;;;;;;3.65;1.80;;;;;;;22.41;36.25;100464.25;5033408;28;20025;-76
2021/09/07 07:52:22;;;;;;;3.17;2.17;;;;;;;22.56;36.33;100461.09;5034548;28;20096;-76
2021/09/07 07:54:49;;;;;;;5.15;2.30;;;;;;;22.58;36.22;100461.69;5034413;28;20445;-75
2021/09/07 07:57:18;;;;;;;5.72;2.15;;;;;;;22.97;36.07;100515.88;5052507;28;20035;-74
2021/09/07 07:59:44;;;;;;;5.18;4.15;;;;;;;23.02;36.13;100518.69;5036413;28;20087;-75
2021/09/07 08:02:09;;;;;;;7.32;2.60;;;;;;;22.96;35.96;100517.75;5033676;28;20421;-74
2021/09/07 08:04:35;;;;;;;5.22;2.90;;;;;;;23.02;36.04;100524.91;5037658;28;20033;-75
2021/09/07 08:07:00;;;;;;;6.40;3.33;;;;;;;23.04;35.76;100520.13;5041390;28;20322;-76
2021/09/07 08:09:26;;;;;;;7.97;3.47;;;;;;;23.04;35.71;100513.94;5047408;28;20108;-76
2021/09/07 08:11:51;;;;;;;6.28;3.55;;;;;;;22.92;35.60;100468.13;5042830;28;20095;-75
2021/09/07 08:14:16;;;;;;;16.52;5.75;;;;;;;23.05;34.98;100467.91;5037932;28;20145;-73
2021/09/07 08:16:42;;;;;;;6.43;3.08;;;;;;;23.21;34.65;100508.63;5040819;28;20477;-75
2021/09/07 08:19:07;;;;;;;8.88;2.55;;;;;;;23.22;34.90;100503.00;5052531;28;20079;-75
2021/09/07 08:21:33;;;;;;;10.10;3.10;;;;;;;23.29;34.92;100495.59;5053809;28;20044;-75
2021/09/07 08:23:58;;;;;;;8.18;4.00;;;;;;;23.21;35.03;100463.66;5049062;28;20108;-80
2021/09/07 08:26:24;;;;;;;6.85;3.53;;;;;;;23.31;34.79;100455.75;5035499;28;20032;-80
2021/09/07 08:28:49;;;;;;;6.95;2.90;;;;;;;23.62;34.66;100473.38;5033475;28;20052;-80
2021/09/07 08:31:15;;;;;;;5.90;2.88;;;;;;;23.94;34.64;100486.38;5033969;28;20105;-80
2021/09/07 08:33:40;;;;;;;6.07;3.00;;;;;;;24.18;34.16;100481.66;5032256;28;20032;-78
2021/09/07 08:36:06;;;;;;;4.47;2.30;;;;;;;24.06;33.95;100444.78;5033471;28;20061;-79
2021/09/07 08:38:31;;;;;;;7.63;2.60;;;;;;;24.42;33.58;100499.38;5047961;28;20080;-80
2021/09/07 08:40:58;;;;;;;11.93;5.25;;;;;;;24.42;33.33;100471.56;5053330;28;20424;-80
2021/09/07 08:43:25;;;;;;;7.43;3.13;;;;;;;24.63;33.29;100495.94;5041573;28;20517;-80
2021/09/07 08:45:55;;;;;;;10.63;2.50;;;;;;;24.72;32.70;100463.94;5033317;28;20446;-79
2021/09/07 08:48:22;;;;;;;6.25;3.63;;;;;;;24.95;31.97;100479.09;5033503;28;20124;-78
2021/09/07 08:50:49;;;;;;;4.65;2.75;;;;;;;24.71;31.58;100422.59;5033265;28;20022;-78
2021/09/07 08:53:14;;;;;;;13.20;8.45;;;;;;;24.70;31.67;100418.25;5034260;28;20017;-79
2021/09/07 08:55:40;;;;;;;29.13;3.75;;;;;;;25.15;31.33;100471.28;5046168;28;20025;-79
2021/09/07 08:58:06;;;;;;;10.63;2.38;;;;;;;25.06;31.49;100440.38;5045784;28;20529;-79
2021/09/07 09:00:35;;;;;;;11.57;4.97;;;;;;;25.50;31.03;100483.63;5052111;28;20021;-80
2021/09/07 09:03:08;;;;;;;10.50;3.17;;;;;;;25.25;31.40;100487.63;5069344;28;20051;-79
2021/09/07 09:05:34;;;;;;;6.80;2.75;;;;;;;24.69;31.84;100432.03;5045672;28;20071;-79
2021/09/07 09:07:59;;;;;;;5.22;2.75;;;;;;;25.14;31.67;100488.56;5052293;28;20067;-79
2021/09/07 09:10:26;;;;;;;4.38;2.60;;;;;;;25.47;31.55;100493.06;5052952;28;20379;-79
2021/09/07 09:13:12;;;;;;;9.43;2.88;;;;;;;25.47;31.59;100484.94;5034740;28;20032;-79
2021/09/07 09:15:39;;;;;;;6.60;3.22;;;;;;;25.41;31.84;100455.41;5039754;28;20048;-79
2021/09/07 09:18:11;;;;;;;7.03;2.35;;;;;;;24.98;31.39;100346.25;5046743;28;20414;-80
2021/09/07 09:20:39;;;;;;;8.48;2.40;;;;;;;25.46;32.00;100442.75;5037285;28;20032;-79
2021/09/07 09:23:08;;;;;;;5.68;2.35;;;;;;;25.51;31.80;100490.66;5045252;28;20036;-74
2021/09/07 09:25:37;;;;;;;7.10;3.25;;;;;;;25.28;32.19;100433.09;5044987;28;20431;-75
2021/09/07 09:28:20;;;;;;;9.07;3.08;;;;;;;25.52;32.10;100462.53;5032363;28;20029;-76
2021/09/07 09:30:55;;;;;;;8.93;3.50;;;;;;;25.20;32.50;100443.50;5052899;28;20177;-72
2021/09/07 09:33:28;;;;;;;8.40;3.13;;;;;;;25.21;32.85;100481.09;5041360;28;20033;-73
2021/09/07 09:35:59;;;;;;;5.93;2.30;;;;;;;25.18;33.02;100478.06;5052514;28;20024;-74
2021/09/07 09:38:34;;;;;;;6.45;3.28;;;;;;;25.10;33.12;100457.72;5039373;28;20040;-75
2021/09/07 09:41:02;;;;;;;7.32;2.97;;;;;;;24.89;32.97;100388.25;5048426;28;20033;-74
2021/09/07 09:43:44;;;;;;;5.20;2.42;;;;;;;25.39;32.92;100462.94;5052297;28;20033;-74
2021/09/07 09:46:22;;;;;;;6.05;3.75;;;;;;;25.60;33.15;100459.38;5047538;28;20047;-74
2021/09/07 09:48:49;;;;;;;6.47;2.80;;;;;;;26.04;32.28;100462.03;5043092;28;20519;-74
2021/09/07 09:51:17;;;;;;;8.50;4.32;;;;;;;26.07;32.46;100470.44;5065263;28;20513;-75
2021/09/07 09:53:45;;;;;;;8.32;4.95;;;;;;;25.67;32.24;100441.09;5055224;28;20048;-75
2021/09/07 09:56:11;;;;;;;9.80;5.63;;;;;;;25.73;32.98;100463.59;5064475;28;20009;-75
2021/09/07 09:58:38;;;;;;;5.28;3.13;;;;;;;25.82;32.65;100470.19;5053369;28;20132;-74
2021/09/07 10:01:05;;;;;;;8.77;6.10;;;;;;;25.92;32.46;100464.88;5032185;28;20104;-75
2021/09/07 10:03:31;;;;;;;18.45;15.80;;;;;;;26.15;32.05;100426.66;5030220;28;20032;-75
2021/09/07 10:05:57;;;;;;;17.85;13.57;;;;;;;26.43;31.95;100463.44;5029954;28;20026;-75
2021/09/07 10:08:23;;;;;;;8.15;5.07;;;;;;;26.19;31.66;100426.97;5042193;28;20021;-75
2021/09/07 10:11:01;;;;;;;9.18;6.05;;;;;;;26.65;31.25;100457.09;5050511;28;20031;-75
2021/09/07 10:13:29;;;;;;;4.78;2.20;;;;;;;26.70;30.93;100457.13;5037405;28;20045;-75
2021/09/07 10:16:02;;;;;;;10.38;6.75;;;;;;;26.78;30.93;100445.81;5048594;28;20162;-76
2021/09/07 10:18:36;;;;;;;6.78;5.15;;;;;;;26.60;30.84;100437.00;5041982;28;20128;-76
2021/09/07 10:21:06;;;;;;;6.90;3.95;;;;;;;26.33;31.19;100440.91;5031714;28;20417;-75
2021/09/07 10:23:52;;;;;;;6.57;4.70;;;;;;;26.55;30.88;100439.69;5031703;28;20029;-75
2021/09/07 10:26:42;;;;;;;12.95;3.60;;;;;;;27.04;30.24;100441.34;5032279;28;20101;-75
2021/09/07 10:29:21;;;;;;;8.27;3.80;;;;;;;26.60;30.60;100447.84;5030722;28;20470;-75
2021/09/07 10:31:57;;;;;;;6.95;2.90;;;;;;;26.45;31.07;100446.94;5032088;28;20524;-75
2021/09/07 10:34:28;;;;;;;6.35;2.30;;;;;;;26.58;31.17;100451.91;5035773;28;20379;-75
2021/09/07 10:36:59;;;;;;;6.53;2.90;;;;;;;26.36;31.22;100443.91;5051504;28;20039;-74
2021/09/07 10:39:30;;;;;;;8.93;5.38;;;;;;;26.22;31.42;100442.69;5051296;28;20090;-76
2021/09/07 10:41:56;;;;;;;6.25;3.78;;;;;;;26.46;31.41;100424.19;5034123;28;20087;-76
2021/09/07 10:44:33;;;;;;;10.35;3.53;;;;;;;26.99;30.70;100436.72;5031416;28;20029;-74
2021/09/07 10:47:07;;;;;;;8.45;5.65;;;;;;;27.33;29.98;100404.56;5034602;28;20518;-75
2021/09/07 10:49:44;;;;;;;11.10;3.58;;;;;;;27.92;29.61;100423.16;5046511;28;20116;-73
2021/09/07 10:52:14;;;;;;;6.47;2.88;;;;;;;27.69;29.97;100429.13;5056616;28;20031;-74
2021/09/07 10:54:44;;;;;;;6.97;3.05;;;;;;;27.70;30.05;100428.03;5042249;28;20025;-72
2021/09/07 10:57:09;;;;;;;10.45;4.60;;;;;;;27.98;29.49;100415.81;5036215;28;20041;-75
2021/09/07 10:59:50;;;;;;;5.15;2.38;;;;;;;28.09;28.88;100395.72;5028741;28;20036;-75
2021/09/07 11:02:34;;;;;;;1132.82;119.47;;;;;;;28.46;28.79;100400.88;5028867;28;20037;-76
2021/09/07 11:05:02;;;;;;;75.85;9.15;;;;;;;27.99;29.56;100409.31;5027506;28;20044;-75
2021/09/07 11:07:43;;;;;;;109.85;10.98;;;;;;;27.54;29.42;100406.28;5027530;28;20514;-72
2021/09/07 11:10:14;;;;;;;110.35;11.40;;;;;;;27.41;30.01;100409.47;5030248;28;20025;-76
2021/09/07 11:12:50;;;;;;;12.30;3.65;;;;;;;27.20;29.94;100408.63;5030933;28;20034;-74
2021/09/07 11:15:20;;;;;;;14.93;3.30;;;;;;;26.76;30.68;100391.06;5031128;28;20072;-75
2021/09/07 11:18:27;;;;;;;16.05;2.90;;;;;;;26.42;31.02;100394.13;5030600;28;20021;-74
2021/09/07 11:20:55;;;;;;;19.67;3.85;;;;;;;26.32;31.40;100409.44;5002250;28;20030;-73
2021/09/07 11:23:28;;;;;;;10.88;3.70;;;;;;;26.24;31.72;100387.22;5031055;28;20051;-75